createdAt,value
2023-03-06T00:00:32.412Z,99339.97
2023-03-06T00:02:59.240Z,99339.97
2023-03-06T00:05:26.336Z,99334.91
2023-03-06T00:07:53.085Z,99331.69
2023-03-06T00:10:22.588Z,99333.28
2023-03-06T00:12:55.546Z,99338.84
2023-03-06T00:15:23.531Z,99330.19
2023-03-06T00:17:50.125Z,99334.50
2023-03-06T00:20:17.183Z,99332.06
2023-03-06T00:22:44.137Z,99332.94
2023-03-06T00:25:15.372Z,99327.72
2023-03-06T00:27:42.277Z,99324.19
2023-03-06T00:30:11.859Z,99318.41
2023-03-06T00:32:38.596Z,99325.94
2023-03-06T00:35:05.543Z,99317.28
2023-03-06T00:37:32.426Z,99316.50
2023-03-06T00:39:59.071Z,99310.13
2023-03-06T00:42:25.715Z,99305.63
2023-03-06T00:44:52.430Z,99312.63
2023-03-06T00:47:18.979Z,99303.38
2023-03-06T00:49:46.029Z,99307.63
2023-03-06T00:52:13.264Z,99303.53
2023-03-06T00:54:40.364Z,99296.41
2023-03-06T00:57:07.469Z,99299.91
2023-03-06T00:59:34.212Z,99299.06
2023-03-06T01:02:00.769Z,99303.53
2023-03-06T01:04:27.645Z,99301.91
2023-03-06T01:06:54.302Z,99288.41
2023-03-06T01:09:20.861Z,99287.69
2023-03-06T01:11:47.603Z,99282.41
2023-03-06T01:14:14.170Z,99282.34
2023-03-06T01:16:40.855Z,99279.03
2023-03-06T01:19:07.473Z,99283.25
2023-03-06T01:21:34.017Z,99270.41
2023-03-06T01:24:00.556Z,99269.88
2023-03-06T01:26:27.184Z,99267.47
2023-03-06T01:28:53.906Z,99268.19
2023-03-06T01:31:20.428Z,99251.81
2023-03-06T01:33:46.993Z,99254.66
2023-03-06T01:36:13.630Z,99252.81
2023-03-06T01:38:40.262Z,99245.91
2023-03-06T01:41:07.221Z,99253.75
2023-03-06T01:43:36.217Z,99253.81
2023-03-06T01:46:23.343Z,99251.13
2023-03-06T01:48:56.877Z,99242.53
2023-03-06T01:51:27.225Z,99237.94
2023-03-06T01:53:55.215Z,99245.03
2023-03-06T01:56:22.584Z,99243.44
2023-03-06T01:58:49.701Z,99235.59
2023-03-06T02:01:17.566Z,99236.38
2023-03-06T02:03:44.406Z,99236.38
2023-03-06T02:06:11.223Z,99236.03
2023-03-06T02:08:38.572Z,99237.59
2023-03-06T02:11:11.092Z,99238.38
2023-03-06T02:13:39.153Z,99237.94
2023-03-06T02:16:07.199Z,99231.16
2023-03-06T02:18:34.669Z,99229.88
2023-03-06T02:21:06.229Z,99234.22
2023-03-06T02:23:41.135Z,99230.53
2023-03-06T02:26:09.429Z,99228.72
2023-03-06T02:28:36.223Z,99229.66
2023-03-06T02:31:02.849Z,99220.44
2023-03-06T02:33:30.181Z,99221.16
2023-03-06T02:35:59.936Z,99223.50
2023-03-06T02:38:40.116Z,99218.69
2023-03-06T02:41:08.618Z,99213.00
2023-03-06T02:43:39.726Z,99218.44
2023-03-06T02:46:07.550Z,99207.00
2023-03-06T02:48:34.790Z,99209.13
2023-03-06T02:51:01.394Z,99207.78
2023-03-06T02:53:28.028Z,99206.28
2023-03-06T02:55:54.588Z,99203.63
2023-03-06T02:58:21.266Z,99195.00
2023-03-06T03:00:49.303Z,99204.09
2023-03-06T03:03:16.152Z,99201.66
2023-03-06T03:05:42.679Z,99195.50
2023-03-06T03:08:09.283Z,99187.94
2023-03-06T03:10:35.859Z,99179.50
2023-03-06T03:13:02.694Z,99185.56
2023-03-06T03:15:29.258Z,99186.97
2023-03-06T03:17:55.796Z,99182.38
2023-03-06T03:20:22.743Z,99176.28
2023-03-06T03:22:53.884Z,99178.22
2023-03-06T03:25:22.560Z,99173.88
2023-03-06T03:27:49.136Z,99173.78
2023-03-06T03:30:16.105Z,99170.41
2023-03-06T03:32:43.175Z,99169.97
2023-03-06T03:35:11.207Z,99168.16
2023-03-06T03:37:38.460Z,99167.44
2023-03-06T03:40:06.952Z,99165.25
2023-03-06T03:42:34.007Z,99168.63
2023-03-06T03:45:00.542Z,99163.56
2023-03-06T03:47:27.125Z,99163.28
2023-03-06T03:49:53.683Z,99158.75
2023-03-06T03:52:20.241Z,99154.81
2023-03-06T03:54:46.766Z,99151.38
2023-03-06T03:57:13.363Z,99149.81
2023-03-06T03:59:39.865Z,99145.66
2023-03-06T04:02:06.428Z,99143.69
2023-03-06T04:04:33.040Z,99143.69
2023-03-06T04:07:00.536Z,99137.56
2023-03-06T04:09:27.102Z,99136.03
2023-03-06T04:11:53.593Z,99129.19
2023-03-06T04:14:20.108Z,99123.00
2023-03-06T04:16:46.628Z,99129.13
2023-03-06T04:19:13.182Z,99129.69
2023-03-06T04:21:39.809Z,99123.56
2023-03-06T04:24:06.653Z,99115.25
2023-03-06T04:26:33.208Z,99121.69
2023-03-06T04:28:59.795Z,99116.25
2023-03-06T04:31:26.339Z,99120.69
2023-03-06T04:33:52.902Z,99114.75
2023-03-06T04:36:31.900Z,99110.09
2023-03-06T04:38:59.192Z,99111.94
2023-03-06T04:41:26.214Z,99106.50
2023-03-06T04:43:53.732Z,99111.66
2023-03-06T04:46:20.317Z,99105.09
2023-03-06T04:48:46.835Z,99115.47
2023-03-06T04:51:14.322Z,99106.03
2023-03-06T04:53:40.922Z,99103.75
2023-03-06T04:56:07.770Z,99096.94
2023-03-06T04:58:34.318Z,99098.63
2023-03-06T05:01:00.973Z,99098.34
2023-03-06T05:03:27.678Z,99086.72
2023-03-06T05:05:54.291Z,99088.63
2023-03-06T05:08:21.099Z,99088.81
2023-03-06T05:10:56.039Z,99092.06
2023-03-06T05:13:22.589Z,99089.09
2023-03-06T05:15:49.193Z,99081.84
2023-03-06T05:18:15.790Z,99087.94
2023-03-06T05:20:42.767Z,99094.03
2023-03-06T05:23:09.325Z,99086.69
2023-03-06T05:25:38.160Z,99089.97
2023-03-06T05:28:04.698Z,99086.13
2023-03-06T05:30:31.275Z,99084.03
2023-03-06T05:32:57.789Z,99078.63
2023-03-06T05:35:24.770Z,99082.47
2023-03-06T05:37:51.510Z,99077.41
2023-03-06T05:40:19.204Z,99077.47
2023-03-06T05:42:45.732Z,99078.19
2023-03-06T05:45:12.277Z,99078.25
2023-03-06T05:47:38.918Z,99076.34
2023-03-06T05:50:07.982Z,99075.84
2023-03-06T05:52:34.498Z,99066.78
2023-03-06T05:55:01.053Z,99071.75
2023-03-06T05:57:27.630Z,99059.81
2023-03-06T05:59:54.263Z,99064.09
2023-03-06T06:02:20.977Z,99060.25
2023-03-06T06:04:47.771Z,99065.59
2023-03-06T06:07:15.811Z,99063.41
2023-03-06T06:09:45.378Z,99069.47
2023-03-06T06:12:12.663Z,99064.75
2023-03-06T06:14:39.220Z,99067.50
2023-03-06T06:17:05.820Z,99065.63
2023-03-06T06:19:32.760Z,99064.84
2023-03-06T06:21:59.350Z,99071.44
2023-03-06T06:24:26.757Z,99063.69
2023-03-06T06:26:55.104Z,99071.59
2023-03-06T06:29:22.075Z,99067.63
2023-03-06T06:31:49.260Z,99069.28
2023-03-06T06:34:16.212Z,99067.34
2023-03-06T06:36:43.150Z,99063.97
2023-03-06T06:39:12.934Z,99071.50
2023-03-06T06:41:56.895Z,99066.94
2023-03-06T06:44:25.761Z,99067.47
2023-03-06T06:47:22.008Z,99068.03
2023-03-06T06:49:39.640Z,99055.19
2023-03-06T06:52:06.901Z,99063.31
2023-03-06T06:54:34.792Z,99067.47
2023-03-06T06:57:01.619Z,99054.84
2023-03-06T06:59:28.158Z,99074.16
2023-03-06T07:01:54.662Z,99061.16
2023-03-06T07:04:21.309Z,99061.66
2023-03-06T07:06:48.307Z,99056.28
2023-03-06T07:09:14.884Z,99059.84
2023-03-06T07:11:41.667Z,99054.00
2023-03-06T07:14:08.269Z,99052.34
2023-03-06T07:16:34.985Z,99045.16
2023-03-06T07:19:01.653Z,99047.34
2023-03-06T07:21:28.281Z,99051.31
2023-03-06T07:23:57.220Z,99049.06
2023-03-06T07:26:24.931Z,99044.78
2023-03-06T07:28:53.730Z,99044.31
2023-03-06T07:31:22.417Z,99044.69
2023-03-06T07:33:50.227Z,99045.81
2023-03-06T07:36:17.618Z,99051.03
2023-03-06T07:38:44.286Z,99042.97
2023-03-06T07:41:13.597Z,99044.25
2023-03-06T07:43:41.258Z,99046.84
2023-03-06T07:46:08.466Z,99040.22
2023-03-06T07:48:35.820Z,99034.63
2023-03-06T07:51:08.590Z,99036.78
2023-03-06T07:53:35.694Z,99046.88
2023-03-06T07:56:08.564Z,99050.19
2023-03-06T07:58:36.717Z,99041.44
2023-03-06T08:01:07.598Z,99048.00
2023-03-06T08:03:34.513Z,99043.09
2023-03-06T08:06:15.908Z,99047.00
2023-03-06T08:08:44.395Z,99044.03
2023-03-06T08:11:12.410Z,99035.34
2023-03-06T08:13:39.681Z,99044.44
2023-03-06T08:16:06.753Z,99044.13
2023-03-06T08:18:34.186Z,99033.69
2023-03-06T08:21:06.302Z,99040.56
2023-03-06T08:23:33.773Z,99039.88
2023-03-06T08:26:06.127Z,99039.31
2023-03-06T08:28:32.747Z,99036.66
2023-03-06T08:31:07.283Z,99044.59
2023-03-06T08:33:33.928Z,99046.53
2023-03-06T08:36:02.075Z,99058.97
2023-03-06T08:38:28.938Z,99050.94
2023-03-06T08:40:55.522Z,99052.63
2023-03-06T08:43:22.161Z,99057.03
2023-03-06T08:45:55.416Z,99055.53
2023-03-06T08:48:22.213Z,99046.75
2023-03-06T08:50:49.241Z,99049.75
2023-03-06T08:53:15.903Z,99052.56
2023-03-06T08:55:42.529Z,99051.19
2023-03-06T08:58:09.671Z,99048.78
2023-03-06T09:00:37.492Z,99042.09
2023-03-06T09:03:05.250Z,99041.06
2023-03-06T09:05:32.222Z,99052.00
2023-03-06T09:07:58.825Z,99048.00
2023-03-06T09:10:26.165Z,99044.66
2023-03-06T09:12:55.007Z,99042.63
2023-03-06T09:15:24.753Z,99055.19
2023-03-06T09:17:51.827Z,99049.31
2023-03-06T09:20:19.145Z,99047.56
2023-03-06T09:22:45.971Z,99043.47
2023-03-06T09:25:13.991Z,99044.75
2023-03-06T09:27:40.981Z,99041.56
2023-03-06T09:30:08.713Z,99035.97
2023-03-06T09:32:35.339Z,99043.09
2023-03-06T09:35:01.883Z,99039.03
2023-03-06T09:37:28.443Z,99041.00
2023-03-06T09:39:54.969Z,99030.69
2023-03-06T09:42:23.698Z,99038.59
2023-03-06T09:44:56.137Z,99033.13
2023-03-06T09:47:25.369Z,99029.38
2023-03-06T09:50:09.830Z,99042.50
2023-03-06T09:52:39.934Z,99039.88
2023-03-06T09:55:12.737Z,99031.31
2023-03-06T09:57:52.519Z,99036.09
2023-03-06T10:00:26.537Z,99025.13
2023-03-06T10:03:02.923Z,99024.53
2023-03-06T10:05:39.384Z,99016.91
2023-03-06T10:08:27.132Z,99022.38
2023-03-06T10:11:02.504Z,99018.31
2023-03-06T10:13:32.033Z,99026.13
2023-03-06T10:16:25.739Z,99015.19
2023-03-06T10:18:53.491Z,99026.28
2023-03-06T10:21:28.812Z,99020.75
2023-03-06T10:24:07.288Z,99017.69
2023-03-06T10:26:48.453Z,99021.22
2023-03-06T10:30:00.116Z,99027.31
2023-03-06T10:32:51.352Z,99020.13
2023-03-06T10:35:30.373Z,99017.13
2023-03-06T10:38:13.068Z,99020.75
2023-03-06T10:41:07.420Z,99007.06
2023-03-06T10:43:36.362Z,99015.34
2023-03-06T10:46:05.063Z,99015.41
2023-03-06T10:48:35.920Z,99022.16
2023-03-06T10:51:24.412Z,99022.88
2023-03-06T10:53:53.082Z,99009.09
2023-03-06T10:56:29.973Z,99005.91
2023-03-06T10:59:16.175Z,99005.84
2023-03-06T11:01:51.345Z,99013.03
2023-03-06T11:04:31.747Z,99008.16
2023-03-06T11:07:28.509Z,99006.28
2023-03-06T11:09:57.870Z,99004.44
2023-03-06T11:12:38.641Z,99006.84
2023-03-06T11:15:12.304Z,98985.69
2023-03-06T11:17:50.190Z,99008.72
2023-03-06T11:20:25.301Z,99016.69
2023-03-06T11:23:02.173Z,99004.41
2023-03-06T11:25:40.407Z,99009.44
2023-03-06T11:28:23.794Z,99003.09
2023-03-06T11:30:56.552Z,99006.47
2023-03-06T11:33:30.876Z,99009.63
2023-03-06T11:36:11.456Z,99000.28
2023-03-06T11:38:51.959Z,98995.06
2023-03-06T11:41:39.445Z,98988.88
2023-03-06T11:44:27.244Z,98996.81
2023-03-06T11:47:18.953Z,98998.97
2023-03-06T11:50:24.144Z,98985.69
2023-03-06T11:53:05.061Z,98978.59
2023-03-06T11:56:02.083Z,98999.28
2023-03-06T11:58:56.261Z,98986.22
2023-03-06T12:01:47.485Z,98981.72
2023-03-06T12:04:54.173Z,98965.72
2023-03-06T12:07:33.790Z,98956.63
2023-03-06T12:10:32.723Z,98952.00
2023-03-06T12:13:11.264Z,98953.25
2023-03-06T12:16:15.234Z,98950.75
2023-03-06T12:18:53.175Z,98944.94
2023-03-06T12:21:28.534Z,98945.00
2023-03-06T12:24:16.779Z,98944.31
2023-03-06T12:26:49.279Z,98947.91
2023-03-06T12:29:25.724Z,98951.22
2023-03-06T12:32:14.876Z,98945.50
2023-03-06T12:35:06.454Z,98941.69
2023-03-06T12:37:42.530Z,98945.75
2023-03-06T12:40:21.337Z,98943.25
2023-03-06T12:43:18.625Z,98939.41
2023-03-06T12:45:46.209Z,98953.09
2023-03-06T12:48:22.520Z,98944.94
2023-03-06T12:50:50.148Z,98948.97
2023-03-06T12:53:29.756Z,98941.00
2023-03-06T12:55:58.424Z,98943.66
2023-03-06T12:58:30.862Z,98946.50
2023-03-06T13:01:04.178Z,98955.28
2023-03-06T13:03:55.879Z,98959.31
2023-03-06T13:06:34.200Z,98954.56
2023-03-06T13:09:08.833Z,98956.81
2023-03-06T13:11:44.493Z,98964.19
2023-03-06T13:14:25.013Z,98962.34
2023-03-06T13:16:51.860Z,98958.81
2023-03-06T13:19:22.039Z,98961.91
2023-03-06T13:21:54.647Z,98955.50
2023-03-06T13:24:25.078Z,98962.56
2023-03-06T13:27:09.504Z,98965.53
2023-03-06T13:29:35.984Z,98956.00
2023-03-06T13:32:02.520Z,98954.78
2023-03-06T13:34:31.864Z,98955.53
2023-03-06T13:37:13.774Z,98951.03
2023-03-06T13:40:10.063Z,98944.09
2023-03-06T13:42:57.626Z,98949.78
2023-03-06T13:45:52.863Z,98946.13
2023-03-06T13:48:44.886Z,98940.22
2023-03-06T13:51:24.623Z,98939.28
2023-03-06T13:54:15.683Z,98929.38
2023-03-06T13:56:57.438Z,98926.56
2023-03-06T13:59:29.959Z,98926.91
2023-03-06T14:02:26.833Z,98914.44
2023-03-06T14:04:58.663Z,98904.97
2023-03-06T14:07:32.277Z,98907.84
2023-03-06T14:10:14.938Z,98912.97
2023-03-06T14:13:06.657Z,98913.00
2023-03-06T14:15:44.570Z,98918.03
2023-03-06T14:18:33.781Z,98915.41
2023-03-06T14:21:05.532Z,98911.84
2023-03-06T14:23:35.320Z,98907.78
2023-03-06T14:26:20.174Z,98917.44
2023-03-06T14:28:56.834Z,98917.94
2023-03-06T14:31:26.793Z,98911.44
2023-03-06T14:33:54.742Z,98913.56
2023-03-06T14:36:24.573Z,98917.06
2023-03-06T14:38:58.168Z,98907.75
2023-03-06T14:41:26.295Z,98904.41
2023-03-06T14:43:53.218Z,98905.88
2023-03-06T14:46:22.352Z,98900.56
2023-03-06T14:48:49.502Z,98904.66
2023-03-06T14:51:28.243Z,98907.84
2023-03-06T14:54:02.010Z,98899.75
2023-03-06T14:56:30.075Z,98898.69
2023-03-06T14:59:03.238Z,98905.25
2023-03-06T15:01:45.773Z,98910.34
2023-03-06T15:04:15.288Z,98897.88
2023-03-06T15:06:44.212Z,98905.00
2023-03-06T15:09:24.203Z,98899.53
2023-03-06T15:12:02.866Z,98899.88
2023-03-06T15:14:36.479Z,98899.63
2023-03-06T15:17:42.747Z,98899.59
2023-03-06T15:20:51.950Z,98910.75
2023-03-06T15:23:23.096Z,98903.19
2023-03-06T15:25:58.373Z,98903.81
2023-03-06T15:28:33.207Z,98899.63
2023-03-06T15:31:20.807Z,98897.22
2023-03-06T15:34:07.879Z,98893.47
2023-03-06T15:36:36.769Z,98899.19
2023-03-06T15:39:35.352Z,98895.66
2023-03-06T15:42:23.597Z,98899.59
2023-03-06T15:44:55.513Z,98901.03
2023-03-06T15:47:23.176Z,98903.47
2023-03-06T15:49:52.579Z,98896.00
2023-03-06T15:52:22.713Z,98907.03
2023-03-06T15:54:49.784Z,98907.50
2023-03-06T15:57:23.859Z,98910.69
2023-03-06T15:59:51.225Z,98909.00
2023-03-06T16:02:20.334Z,98926.38
2023-03-06T16:04:47.534Z,98961.94
2023-03-06T16:07:14.847Z,98951.72
2023-03-06T16:09:42.303Z,98949.63
2023-03-06T16:12:17.493Z,98955.94
2023-03-06T16:14:45.345Z,98960.91
2023-03-06T16:17:12.499Z,98962.03
2023-03-06T16:19:39.539Z,98959.09
2023-03-06T16:22:06.256Z,98959.50
2023-03-06T16:24:33.050Z,98959.09
2023-03-06T16:27:01.512Z,98962.09
2023-03-06T16:29:29.407Z,98955.03
2023-03-06T16:31:58.752Z,98951.19
2023-03-06T16:34:25.657Z,98955.19
2023-03-06T16:36:52.594Z,98955.25
2023-03-06T16:39:22.095Z,98966.06
2023-03-06T16:41:51.856Z,98956.16
2023-03-06T16:44:18.780Z,98954.50
2023-03-06T16:46:47.955Z,98958.19
2023-03-06T16:49:20.606Z,98953.88
2023-03-06T16:51:47.519Z,98949.66
2023-03-06T16:54:14.037Z,98941.41
2023-03-06T16:56:40.760Z,98941.44
2023-03-06T16:59:07.349Z,98939.16
2023-03-06T17:01:34.122Z,98934.94
2023-03-06T17:04:00.900Z,98942.34
2023-03-06T17:06:27.582Z,98937.25
2023-03-06T17:08:54.373Z,98940.81
2023-03-06T17:11:20.910Z,98939.22
2023-03-06T17:13:48.237Z,98948.66
2023-03-06T17:16:18.472Z,98942.31
2023-03-06T17:18:45.725Z,98936.59
2023-03-06T17:21:15.621Z,98947.28
2023-03-06T17:23:42.863Z,98951.25
2023-03-06T17:26:15.315Z,98946.03
2023-03-06T17:28:42.368Z,98948.13
2023-03-06T17:31:17.286Z,98952.50
2023-03-06T17:33:44.450Z,98954.63
2023-03-06T17:36:11.953Z,98955.88
2023-03-06T17:38:38.539Z,98961.78
2023-03-06T17:41:07.504Z,98958.78
2023-03-06T17:43:34.095Z,98962.16
2023-03-06T17:46:05.595Z,98966.25
2023-03-06T17:48:32.344Z,98970.03
2023-03-06T17:50:59.243Z,98969.75
2023-03-06T17:53:26.932Z,98972.22
2023-03-06T17:55:53.985Z,98978.50
2023-03-06T17:58:20.544Z,98972.59
2023-03-06T18:00:47.108Z,98977.13
2023-03-06T18:03:13.644Z,98976.19
2023-03-06T18:05:40.201Z,98974.44
2023-03-06T18:08:08.316Z,98971.50
2023-03-06T18:10:34.878Z,98969.91
2023-03-06T18:13:01.401Z,98970.44
2023-03-06T18:15:27.990Z,98972.97
2023-03-06T18:17:56.647Z,98974.88
2023-03-06T18:20:23.186Z,98978.41
2023-03-06T18:22:49.704Z,98984.53
2023-03-06T18:25:17.437Z,98982.00
2023-03-06T18:27:43.994Z,98985.09
2023-03-06T18:30:11.270Z,98982.94
2023-03-06T18:32:37.897Z,98990.16
2023-03-06T18:35:04.786Z,98987.47
2023-03-06T18:37:31.369Z,98992.00
2023-03-06T18:39:58.006Z,98990.47
2023-03-06T18:42:24.733Z,98992.19
2023-03-06T18:44:51.266Z,98996.75
2023-03-06T18:47:17.845Z,98996.91
2023-03-06T18:49:45.951Z,98992.56
2023-03-06T18:52:12.942Z,98991.53
2023-03-06T18:54:39.632Z,98989.00
2023-03-06T18:57:06.239Z,98991.25
2023-03-06T18:59:33.019Z,98989.59
2023-03-06T19:01:59.649Z,98997.31
2023-03-06T19:04:27.127Z,98990.09
2023-03-06T19:06:54.853Z,98995.75
2023-03-06T19:09:22.195Z,98990.50
2023-03-06T19:11:49.223Z,98993.16
2023-03-06T19:14:15.887Z,98990.38
2023-03-06T19:16:42.626Z,98995.00
2023-03-06T19:19:09.485Z,98989.72
2023-03-06T19:21:36.035Z,98995.41
2023-03-06T19:24:02.711Z,98993.16
2023-03-06T19:26:29.458Z,98999.06
2023-03-06T19:28:56.077Z,98991.16
2023-03-06T19:31:25.712Z,98997.59
2023-03-06T19:33:53.147Z,98991.69
2023-03-06T19:36:23.595Z,98987.47
2023-03-06T19:38:54.419Z,98989.75
2023-03-06T19:41:20.983Z,98993.72
2023-03-06T19:43:52.333Z,98992.31
2023-03-06T19:46:20.250Z,98983.78
2023-03-06T19:48:47.847Z,98981.63
2023-03-06T19:51:14.755Z,98981.84
2023-03-06T19:53:42.025Z,98986.09
2023-03-06T19:56:12.224Z,98994.75
2023-03-06T19:58:40.630Z,98987.09
2023-03-06T20:01:10.070Z,98991.63
2023-03-06T20:03:36.879Z,98991.47
2023-03-06T20:06:06.611Z,98991.84
2023-03-06T20:08:33.330Z,98985.84
2023-03-06T20:10:59.893Z,98988.78
2023-03-06T20:13:26.466Z,98978.50
2023-03-06T20:15:53.191Z,98972.59
2023-03-06T20:18:19.804Z,98980.81
2023-03-06T20:20:57.199Z,98978.63
2023-03-06T20:23:23.731Z,98982.19
2023-03-06T20:25:50.295Z,98981.97
2023-03-06T20:28:16.789Z,98973.84
2023-03-06T20:30:43.327Z,98976.50
2023-03-06T20:33:10.674Z,98976.03
2023-03-06T20:35:42.376Z,98979.19
2023-03-06T20:38:09.552Z,98974.34
2023-03-06T20:40:40.446Z,98974.56
2023-03-06T20:43:07.674Z,98974.25
2023-03-06T20:45:34.932Z,98978.44
2023-03-06T20:48:01.658Z,98978.91
2023-03-06T20:50:28.242Z,98975.03
2023-03-06T20:52:56.652Z,98973.06
2023-03-06T20:55:23.215Z,98974.59
2023-03-06T20:57:50.954Z,98971.28
2023-03-06T21:00:18.877Z,98960.72
2023-03-06T21:02:45.426Z,98967.84
2023-03-06T21:05:12.040Z,98966.91
2023-03-06T21:07:39.662Z,98956.72
2023-03-06T21:10:06.915Z,98948.50
2023-03-06T21:12:33.448Z,98943.91
2023-03-06T21:15:00.029Z,98939.38
2023-03-06T21:17:27.556Z,98938.44
2023-03-06T21:19:54.092Z,98934.88
2023-03-06T21:22:20.636Z,98938.16
2023-03-06T21:24:47.179Z,98940.16
2023-03-06T21:27:13.793Z,98932.09
2023-03-06T21:29:40.356Z,98937.16
2023-03-06T21:32:06.913Z,98930.63
2023-03-06T21:34:33.442Z,98926.06
2023-03-06T21:36:59.927Z,98933.25
2023-03-06T21:39:26.453Z,98929.78
2023-03-06T21:41:52.954Z,98927.34
2023-03-06T21:44:19.738Z,98923.03
2023-03-06T21:46:46.229Z,98924.75
2023-03-06T21:49:12.790Z,98917.81
2023-03-06T21:51:39.452Z,98918.47
2023-03-06T21:54:06.518Z,98910.88
2023-03-06T21:56:33.581Z,98912.28
2023-03-06T21:59:00.279Z,98916.47
2023-03-06T22:01:28.863Z,98905.78
2023-03-06T22:03:57.399Z,98911.06
2023-03-06T22:06:26.598Z,98913.13
2023-03-06T22:08:55.872Z,98909.75
2023-03-06T22:11:23.575Z,98912.59
2023-03-06T22:13:50.282Z,98906.41
2023-03-06T22:16:17.738Z,98908.38
2023-03-06T22:18:46.139Z,98899.56
2023-03-06T22:21:15.102Z,98898.94
2023-03-06T22:23:42.050Z,98907.06
2023-03-06T22:26:14.297Z,98898.94
2023-03-06T22:28:42.055Z,98896.78
2023-03-06T22:31:17.630Z,98899.94
2023-03-06T22:33:44.626Z,98895.50
2023-03-06T22:36:14.531Z,98897.91
2023-03-06T22:38:43.501Z,98885.63
2023-03-06T22:41:11.514Z,98880.66
2023-03-06T22:43:38.105Z,98891.44
2023-03-06T22:46:07.770Z,98885.09
2023-03-06T22:48:34.826Z,98875.28
2023-03-06T22:51:12.455Z,98881.88
2023-03-06T22:53:41.028Z,98887.94
2023-03-06T22:56:10.103Z,98894.00
2023-03-06T22:58:37.505Z,98894.81
2023-03-06T23:01:09.885Z,98897.50
2023-03-06T23:03:38.134Z,98891.00
2023-03-06T23:06:25.860Z,98889.69
2023-03-06T23:08:58.473Z,98883.19
2023-03-06T23:11:27.889Z,98884.94
2023-03-06T23:13:56.558Z,98876.91
2023-03-06T23:16:23.838Z,98876.66
2023-03-06T23:18:52.412Z,98879.13
2023-03-06T23:21:21.542Z,98873.69
2023-03-06T23:23:49.852Z,98869.06
2023-03-06T23:26:17.978Z,98865.09
2023-03-06T23:28:44.814Z,98870.91
2023-03-06T23:31:16.840Z,98860.94
2023-03-06T23:33:43.563Z,98865.94
2023-03-06T23:36:12.878Z,98862.53
2023-03-06T23:38:40.478Z,98865.97
2023-03-06T23:41:10.386Z,98860.69
2023-03-06T23:43:37.175Z,98850.56
2023-03-06T23:46:04.413Z,98849.34
2023-03-06T23:48:31.818Z,98851.13
2023-03-06T23:50:58.626Z,98842.38
2023-03-06T23:53:25.543Z,98846.53
2023-03-06T23:55:52.397Z,98841.56
2023-03-06T23:58:19.657Z,98836.00
